Pagina principale
METAR-TAF:

METAR-TAF

Aeroporti :

Aeroporto di Ul'janovsk-Vostočnyj

Ul'janovsk, Russia

latitudine: 54-21N, longitudine: 048-23E, altezza: 77 m

Osservazione

Il bollettino è stato emesso 34 minuti fa, alle 19:00 UTC
Vento 8 kt da nord/nord-ovest
Temperature 19°C
Umidità 83%
Pressione 1018 hPa
Visibilità: 8000 m
Cielo coperto ad un'altezza di 2100 ft

METAR: UWLW 101900Z 34004MPS 8000 OVC021 19/16 Q1018 R02/CLRD60 NOSIG RMK QFE756

Ora: 22:34 (19:34 UTC)

Previsione

Il bollettino è stato emesso 2 ore e 49 minuti fa, alle 16:45 UTC
Previsione valida dal 10 alle 18 UTC al 11 alle 18 UTC
Vento 10 kt da nord/nord-ovest con raffiche fino a 21 kt
Visibilità: 8000 m
Nubi sparse ad un'altezza di 3300 ft
Temporaneamente
dal 10 alle 18 UTC al 11 alle 18 UTC
Vento 12 kt da ovest/nord-ovest con raffiche fino a 23 kt

TAF: UWLW 101645Z 1018/1118 33005G11MPS 8000 SCT033 TX27/1110Z TN16/1101Z TEMPO 1018/1118 29006G12MPS

Osservazioni e previsioni meteorologiche di più di 4000 aeroporti (messaggi METAR e TAF).

Le stazioni disponibili sono rappresentate dai dischi gialli e rossi sulla carta.

Puntare il mouse per vedere il nome della stazione.

Clicca sopra per visualizzare le osservazioni e previsioni meteorologiche.

Per cambiare la mappa : fare clic sui pulsanti verdi con una croce nera per ingrandire, il pulsante verde con un trattino per diminuire, o sulla freccia verde per le mappe adiacenti.


METAR-TAF: